Time;durP1;ratioP1;P1;durP2;ratioP2;P2;SDS_P1;SDS_P2;PMS_P1;PMS_P2;Temp;Humidity;BMP_temperature;BMP_pressure;BME280_temperature;BME280_humidity;BME280_pressure;Samples;Min_cycle;Max_cycle;Signal;HPM_P1;HPM_P2
2022/07/06 00:01:24;;;;;;;1.20;0.47;;;12.10;99.90;;;;;;5054893;28;20490;-73
2022/07/06 00:03:49;;;;;;;1.98;0.00;;;12.10;99.90;;;;;;5053928;28;20563;-73
2022/07/06 00:06:16;;;;;;;2.05;0.00;;;12.10;99.90;;;;;;5054585;28;20028;-73
2022/07/06 00:08:43;;;;;;;1.45;0.00;;;12.10;99.90;;;;;;5055392;28;20024;-72
2022/07/06 00:11:08;;;;;;;1.20;0.10;;;12.10;99.90;;;;;;5055061;28;20432;-72
2022/07/06 00:13:34;;;;;;;0.40;0.00;;;;;;;;;;5055156;28;20109;-73
2022/07/06 00:16:00;;;;;;;3.15;0.08;;;12.00;99.90;;;;;;5054633;28;20071;-73
2022/07/06 00:18:25;;;;;;;4.13;0.00;;;11.90;99.90;;;;;;5054781;28;20032;-73
2022/07/06 00:20:51;;;;;;;0.00;0.00;;;11.90;99.90;;;;;;5054288;28;20025;-73
2022/07/06 00:23:17;;;;;;;2.00;0.00;;;11.90;99.90;;;;;;5054369;28;20074;-73
2022/07/06 00:25:43;;;;;;;0.22;0.00;;;11.80;99.90;;;;;;5053947;28;20079;-72
2022/07/06 00:28:08;;;;;;;0.30;0.00;;;11.80;99.90;;;;;;5054416;28;20051;-72
2022/07/06 00:30:34;;;;;;;1.27;0.00;;;11.80;99.90;;;;;;5054555;28;20029;-72
2022/07/06 00:33:00;;;;;;;0.65;0.00;;;11.80;99.90;;;;;;5054639;28;20051;-73
2022/07/06 00:35:26;;;;;;;1.38;0.00;;;11.70;99.90;;;;;;5054410;28;20021;-72
2022/07/06 00:37:52;;;;;;;5.25;0.30;;;11.70;99.90;;;;;;5054274;28;20075;-72
2022/07/06 00:40:18;;;;;;;0.70;0.00;;;11.70;99.90;;;;;;5054174;28;20025;-72
2022/07/06 00:42:45;;;;;;;1.63;0.00;;;11.70;99.90;;;;;;5054585;28;20024;-73
2022/07/06 00:45:12;;;;;;;0.60;0.00;;;11.60;99.90;;;;;;5054296;28;20025;-73
2022/07/06 00:47:38;;;;;;;0.22;0.00;;;11.60;99.90;;;;;;5054005;28;20021;-73
2022/07/06 00:50:14;;;;;;;0.40;0.10;;;11.60;99.90;;;;;;5054237;28;20032;-73
2022/07/06 00:52:44;;;;;;;0.52;0.00;;;11.60;99.90;;;;;;5054383;28;20382;-73
2022/07/06 00:55:11;;;;;;;0.52;0.00;;;11.60;99.90;;;;;;5054376;28;20075;-73
2022/07/06 00:57:38;;;;;;;0.63;0.00;;;11.50;99.90;;;;;;5053799;28;20025;-73
2022/07/06 01:00:06;;;;;;;3.17;0.10;;;11.50;99.90;;;;;;5053499;28;20036;-73
2022/07/06 01:02:33;;;;;;;3.08;0.28;;;11.50;99.90;;;;;;5053572;28;20037;-73
2022/07/06 01:04:59;;;;;;;1.60;0.00;;;11.40;99.90;;;;;;5053963;28;20033;-73
2022/07/06 01:07:25;;;;;;;1.65;0.17;;;11.40;99.90;;;;;;5053833;28;20037;-73
2022/07/06 01:09:51;;;;;;;3.67;0.13;;;11.40;99.90;;;;;;5052273;28;20078;-73
2022/07/06 01:12:17;;;;;;;0.10;0.00;;;11.40;99.90;;;;;;5053473;28;20025;-73
2022/07/06 01:14:44;;;;;;;8.27;0.17;;;11.40;99.90;;;;;;5053040;28;20474;-73
2022/07/06 01:17:09;;;;;;;1.63;0.03;;;11.40;99.90;;;;;;5053787;28;20057;-73
2022/07/06 01:19:35;;;;;;;1.92;0.00;;;11.30;99.90;;;;;;5053478;28;20022;-73
2022/07/06 01:22:01;;;;;;;1.45;0.08;;;11.30;99.90;;;;;;5053660;28;20017;-73
2022/07/06 01:24:27;;;;;;;2.25;0.00;;;11.30;99.90;;;;;;5053775;28;20374;-73
2022/07/06 01:26:52;;;;;;;1.02;0.00;;;11.30;99.90;;;;;;5053525;28;20378;-73
2022/07/06 01:29:18;;;;;;;1.13;0.00;;;11.40;99.90;;;;;;5054121;28;20028;-73
2022/07/06 01:31:49;;;;;;;1.33;0.00;;;11.40;99.90;;;;;;5051958;28;20025;-74
2022/07/06 01:34:17;;;;;;;0.93;0.00;;;11.50;99.90;;;;;;5051609;28;20032;-74
2022/07/06 01:36:43;;;;;;;0.60;0.00;;;11.60;99.90;;;;;;5053209;28;20482;-74
2022/07/06 01:39:09;;;;;;;1.55;0.00;;;11.60;99.90;;;;;;5051644;28;20040;-73
2022/07/06 01:41:35;;;;;;;1.77;0.00;;;11.70;99.90;;;;;;5051709;28;20102;-73
2022/07/06 01:44:01;;;;;;;3.15;0.00;;;11.80;99.90;;;;;;5052918;28;20060;-74
2022/07/06 01:46:26;;;;;;;6.53;1.02;;;11.80;99.90;;;;;;5053270;28;20025;-74
2022/07/06 01:48:52;;;;;;;1.63;0.10;;;11.80;99.90;;;;;;5052795;28;20039;-74
2022/07/06 01:51:18;;;;;;;0.90;0.00;;;11.90;99.90;;;;;;5053065;28;20450;-74
2022/07/06 01:53:44;;;;;;;1.25;0.00;;;11.90;99.90;;;;;;5054413;28;20513;-74
2022/07/06 01:56:10;;;;;;;0.30;0.00;;;11.90;99.90;;;;;;5056756;28;20367;-74
2022/07/06 01:58:36;;;;;;;1.95;0.00;;;11.90;99.90;;;;;;5055364;28;20020;-74
2022/07/06 02:01:09;;;;;;;0.55;0.00;;;12.00;99.90;;;;;;5056732;28;20032;-74
2022/07/06 02:03:35;;;;;;;2.88;0.10;;;12.00;99.90;;;;;;5056743;28;20508;-74
2022/07/06 02:06:01;;;;;;;1.10;0.03;;;12.00;99.90;;;;;;5056596;28;20021;-74
2022/07/06 02:08:27;;;;;;;1.98;0.20;;;12.10;99.90;;;;;;5056852;28;20025;-74
2022/07/06 02:10:52;;;;;;;1.35;0.10;;;12.10;99.90;;;;;;5055053;28;20033;-74
2022/07/06 02:13:18;;;;;;;1.30;0.00;;;12.20;99.90;;;;;;5056306;28;20114;-73
2022/07/06 02:15:44;;;;;;;0.55;0.10;;;12.20;99.90;;;;;;5056197;28;20478;-73
2022/07/06 02:18:09;;;;;;;1.27;0.08;;;12.30;99.90;;;;;;5056213;28;20032;-73
2022/07/06 02:20:35;;;;;;;2.55;0.30;;;12.30;99.90;;;;;;5056045;28;20020;-73
2022/07/06 02:23:00;;;;;;;0.85;0.00;;;12.30;99.90;;;;;;5056089;28;20074;-73
2022/07/06 02:25:26;;;;;;;0.77;0.00;;;12.30;99.90;;;;;;5054856;28;20135;-73
2022/07/06 02:27:51;;;;;;;1.27;0.00;;;12.30;99.90;;;;;;5054628;28;20446;-73
2022/07/06 02:30:17;;;;;;;1.15;0.00;;;12.30;99.90;;;;;;5054835;28;20383;-73
2022/07/06 02:32:43;;;;;;;2.28;0.00;;;12.30;99.90;;;;;;5056089;28;20051;-73
2022/07/06 02:35:09;;;;;;;3.13;0.45;;;12.30;99.90;;;;;;5055974;28;20433;-73
2022/07/06 02:37:34;;;;;;;1.67;0.00;;;12.30;99.90;;;;;;5054594;28;20021;-73
2022/07/06 02:40:01;;;;;;;0.73;0.00;;;12.30;99.90;;;;;;5055900;28;20021;-74
2022/07/06 02:42:26;;;;;;;4.53;0.00;;;12.30;99.90;;;;;;5056114;28;20032;-73
2022/07/06 02:44:53;;;;;;;2.45;0.00;;;12.30;99.90;;;;;;5055931;28;20033;-73
2022/07/06 02:47:18;;;;;;;2.85;0.43;;;12.40;99.90;;;;;;5055746;28;20029;-73
2022/07/06 02:49:44;;;;;;;2.50;0.10;;;12.40;99.90;;;;;;5054379;28;20028;-73
2022/07/06 02:52:10;;;;;;;1.40;0.00;;;12.50;99.90;;;;;;5055749;28;20032;-73
2022/07/06 02:54:35;;;;;;;0.82;0.00;;;12.50;99.90;;;;;;5055628;28;20375;-73
2022/07/06 02:57:01;;;;;;;0.22;0.00;;;12.50;99.90;;;;;;5055603;28;20378;-73
2022/07/06 02:59:26;;;;;;;0.93;0.10;;;12.50;99.90;;;;;;5055490;28;20021;-73
2022/07/06 03:01:52;;;;;;;2.55;0.03;;;12.60;99.90;;;;;;5055333;28;20517;-73
2022/07/06 03:04:17;;;;;;;2.03;0.00;;;12.50;99.90;;;;;;5055391;28;20112;-73
2022/07/06 03:06:43;;;;;;;1.95;0.00;;;12.50;99.90;;;;;;5055429;28;20025;-73
2022/07/06 03:09:09;;;;;;;4.20;0.00;;;12.50;99.90;;;;;;5055378;28;20521;-73
2022/07/06 03:11:35;;;;;;;1.10;0.00;;;12.50;99.90;;;;;;5055311;28;20104;-73
2022/07/06 03:14:06;;;;;;;0.28;0.10;;;12.50;99.90;;;;;;5055318;28;20017;-73
2022/07/06 03:16:32;;;;;;;1.13;0.00;;;12.50;99.90;;;;;;5055538;28;20486;-73
2022/07/06 03:18:57;;;;;;;0.55;0.00;;;12.50;99.90;;;;;;5053884;28;20115;-73
2022/07/06 03:21:24;;;;;;;1.02;0.00;;;12.40;99.90;;;;;;5055122;28;20029;-73
2022/07/06 03:23:50;;;;;;;3.20;0.00;;;12.40;99.90;;;;;;5055710;28;20029;-73
2022/07/06 03:26:16;;;;;;;1.55;0.00;;;12.50;99.90;;;;;;5055086;28;20509;-73
2022/07/06 03:28:41;;;;;;;0.47;0.17;;;12.30;99.90;;;;;;5054948;28;20021;-73
2022/07/06 03:31:07;;;;;;;2.38;0.30;;;12.20;99.90;;;;;;5054942;28;20028;-73
2022/07/06 03:33:32;;;;;;;0.60;0.00;;;12.20;99.90;;;;;;5054985;28;20031;-73
2022/07/06 03:35:58;;;;;;;0.50;0.00;;;12.10;99.90;;;;;;5054991;28;20524;-74
2022/07/06 03:38:24;;;;;;;1.75;0.08;;;12.10;99.90;;;;;;5055471;28;20031;-73
2022/07/06 03:40:49;;;;;;;1.02;0.00;;;12.10;99.90;;;;;;5053652;28;20367;-73
2022/07/06 03:43:15;;;;;;;2.17;0.00;;;12.00;99.90;;;;;;5055319;28;20067;-73
2022/07/06 03:45:40;;;;;;;0.38;0.00;;;12.00;99.90;;;;;;5055007;28;20048;-73
2022/07/06 03:48:06;;;;;;;12.45;0.30;;;11.90;99.90;;;;;;5054910;28;20021;-73
2022/07/06 03:50:31;;;;;;;3.78;0.50;;;11.90;99.90;;;;;;5055159;28;20366;-73
2022/07/06 03:52:57;;;;;;;0.95;0.00;;;11.80;99.90;;;;;;5055082;28;20485;-73
2022/07/06 03:55:23;;;;;;;1.48;0.15;;;11.80;99.90;;;;;;5054465;28;20017;-72
2022/07/06 03:57:48;;;;;;;0.52;0.00;;;11.90;99.90;;;;;;5053171;28;20021;-72
2022/07/06 04:00:14;;;;;;;0.90;0.00;;;11.90;99.90;;;;;;5054788;28;20078;-72
2022/07/06 04:02:40;;;;;;;0.35;0.10;;;11.90;99.90;;;;;;5054385;28;20064;-72
2022/07/06 04:05:06;;;;;;;2.30;0.00;;;12.00;99.90;;;;;;5053148;28;20106;-72
2022/07/06 04:07:31;;;;;;;1.55;0.00;;;12.00;99.90;;;;;;5054171;28;20028;-72
2022/07/06 04:09:57;;;;;;;1.88;0.00;;;12.00;99.90;;;;;;5054142;28;20060;-72
2022/07/06 04:12:22;;;;;;;1.77;0.00;;;12.10;99.90;;;;;;5054133;28;20025;-72
2022/07/06 04:14:48;;;;;;;0.22;0.00;;;12.10;99.90;;;;;;5054154;28;20096;-72
2022/07/06 04:19:58;;;;;;;1.55;0.00;;;12.30;99.90;;;;;;5054896;28;20036;-72
2022/07/06 04:22:23;;;;;;;0.70;0.00;;;12.40;99.90;;;;;;5053913;28;20021;-72
2022/07/06 04:24:49;;;;;;;0.40;0.00;;;12.50;99.90;;;;;;5054367;28;20021;-72
2022/07/06 04:27:14;;;;;;;4.90;0.00;;;12.60;99.90;;;;;;5053877;28;20032;-72
2022/07/06 04:29:40;;;;;;;1.73;0.17;;;12.70;99.90;;;;;;5053700;28;20104;-72
2022/07/06 04:32:06;;;;;;;0.08;0.00;;;12.70;99.90;;;;;;5054251;28;20028;-72
2022/07/06 04:34:31;;;;;;;0.05;0.00;;;12.80;99.90;;;;;;5053713;28;20484;-73
2022/07/06 04:36:57;;;;;;;1.70;0.22;;;12.90;99.90;;;;;;5053682;28;20029;-73
2022/07/06 04:39:23;;;;;;;0.45;0.10;;;12.90;99.90;;;;;;5053761;28;20028;-73
2022/07/06 04:41:48;;;;;;;1.10;0.00;;;13.00;99.90;;;;;;5053749;28;20079;-73
2022/07/06 04:44:14;;;;;;;0.73;0.00;;;13.00;99.90;;;;;;5053699;28;20036;-73
2022/07/06 04:46:40;;;;;;;1.20;0.00;;;13.10;99.90;;;;;;5052276;28;20013;-73
2022/07/06 04:49:06;;;;;;;0.30;0.00;;;13.20;99.90;;;;;;5052311;28;20024;-73
2022/07/06 04:51:32;;;;;;;1.35;0.15;;;13.30;99.90;;;;;;5052198;28;20017;-73
2022/07/06 04:53:57;;;;;;;0.43;0.00;;;13.40;99.90;;;;;;5052365;28;20398;-73
2022/07/06 04:56:23;;;;;;;0.30;0.00;;;13.50;99.90;;;;;;5053649;28;20052;-73
2022/07/06 04:58:48;;;;;;;1.85;0.00;;;13.50;99.90;;;;;;5053480;28;20448;-73
2022/07/06 05:01:14;;;;;;;1.55;0.00;;;13.60;99.90;;;;;;5053788;28;20029;-73
2022/07/06 05:03:40;;;;;;;2.35;0.00;;;13.70;99.90;;;;;;5053527;28;20474;-73
2022/07/06 05:06:07;;;;;;;1.50;0.00;;;13.80;99.90;;;;;;5053664;28;20024;-73
2022/07/06 05:08:34;;;;;;;2.13;0.00;;;13.80;99.90;;;;;;5052003;28;20486;-73
2022/07/06 05:11:00;;;;;;;1.90;0.00;;;13.80;99.90;;;;;;5053773;28;20025;-73
2022/07/06 05:13:25;;;;;;;4.40;0.20;;;14.60;99.90;;;;;;5053314;28;20367;-73
2022/07/06 05:15:51;;;;;;;1.75;0.20;;;14.00;99.90;;;;;;5053360;28;20020;-73
2022/07/06 05:18:17;;;;;;;0.77;0.00;;;14.00;99.90;;;;;;5051898;28;20367;-73
2022/07/06 05:20:42;;;;;;;3.13;0.00;;;14.20;99.90;;;;;;5053714;28;20033;-73
2022/07/06 05:23:08;;;;;;;0.43;0.00;;;14.30;99.90;;;;;;5053459;28;20017;-73
2022/07/06 05:25:34;;;;;;;0.85;0.00;;;14.50;99.90;;;;;;5053706;28;20355;-73
2022/07/06 05:27:59;;;;;;;0.52;0.00;;;14.70;99.90;;;;;;5055391;28;20616;-73
2022/07/06 05:30:25;;;;;;;1.20;0.05;;;14.90;99.90;;;;;;5057212;28;20029;-73
2022/07/06 05:32:51;;;;;;;0.47;0.00;;;15.10;99.90;;;;;;5057606;28;20015;-73
2022/07/06 05:35:17;;;;;;;1.55;0.00;;;15.30;99.90;;;;;;5057193;28;20021;-73
2022/07/06 05:37:43;;;;;;;1.25;0.00;;;15.40;99.90;;;;;;5057064;28;20028;-73
2022/07/06 05:40:09;;;;;;;4.10;0.15;;;15.50;99.90;;;;;;5055741;28;20027;-73
2022/07/06 05:42:35;;;;;;;2.72;0.47;;;15.50;99.90;;;;;;5057331;28;20028;-73
2022/07/06 05:45:00;;;;;;;8.40;0.40;;;15.50;99.90;;;;;;5057121;28;20031;-73
2022/07/06 05:50:13;;;;;;;7.38;0.00;;;16.10;99.90;;;;;;5057108;28;20040;-73
2022/07/06 05:52:42;;;;;;;2.13;0.00;;;15.60;99.90;;;;;;5056929;28;20079;-73
2022/07/06 05:55:09;;;;;;;0.13;0.00;;;15.70;99.90;;;;;;5056901;28;20367;-73
2022/07/06 05:57:35;;;;;;;3.38;0.00;;;15.80;99.90;;;;;;5056656;28;20017;-73
2022/07/06 06:00:00;;;;;;;1.02;0.00;;;16.00;99.90;;;;;;5057301;28;20062;-73
2022/07/06 06:02:26;;;;;;;0.75;0.10;;;16.20;99.90;;;;;;5055285;28;20482;-74
2022/07/06 06:04:53;;;;;;;1.00;0.00;;;16.20;99.90;;;;;;5056834;28;20021;-73
2022/07/06 06:07:18;;;;;;;1.45;0.00;;;16.30;99.90;;;;;;5056610;28;20017;-74
2022/07/06 06:09:44;;;;;;;0.82;0.00;;;16.40;99.90;;;;;;5055374;28;20052;-73
2022/07/06 06:12:10;;;;;;;0.00;0.00;;;16.40;99.90;;;;;;5055331;28;20047;-73
2022/07/06 06:14:36;;;;;;;0.30;0.00;;;16.30;99.90;;;;;;5056807;28;20480;-73
2022/07/06 06:17:01;;;;;;;0.38;0.05;;;16.20;99.90;;;;;;5056445;28;20021;-74
2022/07/06 06:19:27;;;;;;;0.38;0.00;;;16.30;99.90;;;;;;5055031;28;20028;-74
2022/07/06 06:21:52;;;;;;;1.45;0.22;;;16.40;99.90;;;;;;5057077;28;20052;-74
2022/07/06 06:24:18;;;;;;;1.45;0.00;;;16.40;99.90;;;;;;5056524;28;20075;-74
2022/07/06 06:26:43;;;;;;;4.82;0.00;;;16.80;99.90;;;;;;5056186;28;20075;-74
2022/07/06 06:29:09;;;;;;;0.82;0.00;;;16.70;99.90;;;;;;5054734;28;20401;-74
2022/07/06 06:31:35;;;;;;;0.00;0.00;;;16.80;99.90;;;;;;5041092;28;20026;-74
2022/07/06 06:34:00;;;;;;;1.65;0.00;;;16.90;99.90;;;;;;5036154;28;20052;-74
2022/07/06 06:36:26;;;;;;;1.05;0.05;;;17.00;99.90;;;;;;5054901;28;20036;-74
2022/07/06 06:38:52;;;;;;;0.10;0.00;;;17.10;99.90;;;;;;5053969;28;20014;-74
2022/07/06 06:41:20;;;;;;;0.88;0.00;;;17.20;99.90;;;;;;5042205;28;20441;-74
2022/07/06 06:43:46;;;;;;;2.63;0.00;;;17.40;99.90;;;;;;5034815;28;20026;-74
2022/07/06 06:46:12;;;;;;;0.60;0.00;;;17.50;99.90;;;;;;5034802;28;20024;-76
2022/07/06 06:48:37;;;;;;;1.90;0.00;;;17.60;99.90;;;;;;5034546;28;20029;-77
2022/07/06 06:51:05;;;;;;;1.17;0.00;;;17.60;99.90;;;;;;5044987;28;20033;-73
2022/07/06 06:53:31;;;;;;;0.88;0.00;;;17.70;99.90;;;;;;5055382;28;20021;-73
2022/07/06 06:55:56;;;;;;;2.65;0.00;;;17.80;99.90;;;;;;5054566;28;20032;-73
2022/07/06 06:58:22;;;;;;;0.88;0.00;;;17.90;99.90;;;;;;5055787;28;20029;-73
2022/07/06 07:00:48;;;;;;;2.47;0.00;;;18.00;99.90;;;;;;5064696;22;20489;-73
2022/07/06 07:03:13;;;;;;;2.35;0.00;;;18.00;99.90;;;;;;5055060;28;20033;-73
2022/07/06 07:05:39;;;;;;;2.10;0.10;;;18.30;99.90;;;;;;5055528;28;20025;-73
2022/07/06 07:08:05;;;;;;;0.90;0.00;;;18.50;99.90;;;;;;5037604;28;20488;-73
2022/07/06 07:10:31;;;;;;;0.85;0.00;;;18.60;99.90;;;;;;5055279;28;20055;-73
2022/07/06 07:12:57;;;;;;;1.55;0.00;;;18.80;99.90;;;;;;5055312;28;20021;-73
2022/07/06 07:15:23;;;;;;;1.50;0.05;;;18.90;99.90;;;;;;5055354;28;20031;-73
2022/07/06 07:17:48;;;;;;;1.60;0.22;;;18.90;99.90;;;;;;5055452;28;20029;-73
2022/07/06 07:20:14;;;;;;;1.45;0.00;;;18.80;99.90;;;;;;5055147;28;20032;-73
2022/07/06 07:22:40;;;;;;;2.78;0.00;;;18.60;99.90;;;;;;5055158;28;20056;-73
2022/07/06 07:25:06;;;;;;;0.30;0.03;;;18.70;99.90;;;;;;5055335;28;20021;-73
2022/07/06 07:27:31;;;;;;;0.40;0.00;;;18.50;99.90;;;;;;5053719;28;20022;-73
2022/07/06 07:29:57;;;;;;;0.65;0.38;;;18.50;99.90;;;;;;5055054;28;20405;-73
2022/07/06 07:32:23;;;;;;;1.85;0.32;;;18.60;99.90;;;;;;5055547;28;20064;-74
2022/07/06 07:34:48;;;;;;;0.55;0.00;;;18.80;99.90;;;;;;5037170;28;20021;-73
2022/07/06 07:37:14;;;;;;;8.98;0.00;;;19.00;99.90;;;;;;5037077;28;20030;-73
2022/07/06 07:39:39;;;;;;;2.40;0.00;;;19.10;99.90;;;;;;5055086;28;20496;-73
2022/07/06 07:42:05;;;;;;;1.85;0.00;;;19.30;99.90;;;;;;5054177;28;20032;-72
2022/07/06 07:44:30;;;;;;;0.63;0.17;;;19.40;99.90;;;;;;5054875;28;20061;-72
2022/07/06 07:46:56;;;;;;;0.35;0.00;;;19.40;99.90;;;;;;5054606;28;20029;-72
2022/07/06 07:49:22;;;;;;;0.65;0.00;;;19.50;99.90;;;;;;5054125;28;20021;-72
2022/07/06 07:51:50;;;;;;;0.47;0.00;;;19.70;99.90;;;;;;5035991;28;20018;-73
2022/07/06 07:54:16;;;;;;;0.52;0.00;;;19.80;98.50;;;;;;5054459;28;20032;-73
2022/07/06 07:56:42;;;;;;;0.35;0.00;;;19.80;99.50;;;;;;5054478;28;20074;-74
2022/07/06 07:59:08;;;;;;;0.98;0.00;;;19.90;97.70;;;;;;5054440;28;20091;-73
2022/07/06 08:01:34;;;;;;;1.02;0.00;;;20.00;98.00;;;;;;5054598;28;20037;-75
2022/07/06 08:03:59;;;;;;;1.17;0.00;;;20.10;98.00;;;;;;5054320;28;20060;-74
2022/07/06 08:06:26;;;;;;;0.17;0.00;;;20.20;95.40;;;;;;5054650;28;20021;-74
2022/07/06 08:08:51;;;;;;;0.00;0.00;;;20.20;95.20;;;;;;5054764;28;20374;-73
2022/07/06 08:11:17;;;;;;;0.10;0.00;;;20.20;93.80;;;;;;5054147;28;20025;-74
2022/07/06 08:13:42;;;;;;;0.10;0.00;;;20.20;91.10;;;;;;5054127;28;20025;-73
2022/07/06 08:16:09;;;;;;;0.77;0.38;;;20.30;92.10;;;;;;5054473;28;20021;-72
2022/07/06 08:18:35;;;;;;;0.35;0.00;;;20.50;92.30;;;;;;5054125;28;20021;-72
2022/07/06 08:21:01;;;;;;;0.08;0.00;;;20.70;92.50;;;;;;5054156;28;20021;-72
2022/07/06 08:23:27;;;;;;;0.55;0.00;;;20.80;92.10;;;;;;5054215;28;20104;-72
2022/07/06 08:25:52;;;;;;;0.80;0.00;;;21.00;92.10;;;;;;5054334;28;20418;-72
2022/07/06 08:28:18;;;;;;;2.90;0.10;;;21.00;86.30;;;;;;5037017;28;20104;-72
2022/07/06 08:30:47;;;;;;;2.33;0.00;;;20.90;85.70;;;;;;5052292;28;20049;-72
2022/07/06 08:33:13;;;;;;;0.15;0.00;;;21.00;85.00;;;;;;5037326;28;20108;-72
2022/07/06 08:35:39;;;;;;;0.00;0.00;;;20.90;86.50;;;;;;5037027;28;20230;-72
2022/07/06 08:38:05;;;;;;;0.03;0.00;;;21.00;84.20;;;;;;5054034;28;20052;-73
2022/07/06 08:40:34;;;;;;;0.10;0.00;;;20.70;80.00;;;;;;5053740;28;20020;-72
2022/07/06 08:43:01;;;;;;;0.32;0.00;;;20.80;84.00;;;;;;5052377;28;20421;-72
2022/07/06 08:45:27;;;;;;;0.22;0.00;;;20.80;85.70;;;;;;5053633;28;20025;-73
2022/07/06 08:47:54;;;;;;;0.00;0.00;;;20.90;84.70;;;;;;5052365;28;20025;-73
2022/07/06 08:50:20;;;;;;;0.40;0.00;;;21.10;83.70;;;;;;5054249;28;20025;-73
2022/07/06 08:52:47;;;;;;;1.10;0.00;;;21.10;78.00;;;;;;5053779;28;20028;-73
2022/07/06 08:55:14;;;;;;;1.17;0.00;;;21.20;78.60;;;;;;5053734;28;20465;-73
2022/07/06 08:57:40;;;;;;;0.00;0.00;;;21.50;82.00;;;;;;5054308;28;20027;-74
2022/07/06 09:00:09;;;;;;;2.35;0.00;;;21.70;81.30;;;;;;5054703;28;20025;-74
2022/07/06 09:02:36;;;;;;;0.10;0.00;;;21.70;76.40;;;;;;5053728;28;20032;-76
2022/07/06 09:05:03;;;;;;;0.00;0.00;;;21.60;76.60;;;;;;5053846;28;20147;-74
2022/07/06 09:07:29;;;;;;;0.15;0.00;;;21.70;76.20;;;;;;5035978;28;20013;-74
2022/07/06 09:09:58;;;;;;;0.30;0.00;;;21.70;76.80;;;;;;5054276;28;20028;-75
2022/07/06 09:12:28;;;;;;;0.70;0.08;;;22.00;77.80;;;;;;5037039;28;20068;-75
2022/07/06 09:14:57;;;;;;;0.40;0.00;;;21.90;76.70;;;;;;5073590;23;20075;-73
2022/07/06 09:17:30;;;;;;;0.20;0.00;;;22.00;79.80;;;;;;5074040;28;20402;-74
2022/07/06 09:19:56;;;;;;;0.00;0.00;;;21.80;74.30;;;;;;5052311;28;20031;-75
2022/07/06 09:22:32;;;;;;;0.00;0.00;;;21.50;77.40;;;;;;5053389;28;20478;-75
2022/07/06 09:25:14;;;;;;;0.00;0.00;;;21.10;79.30;;;;;;5054440;28;20099;-73
2022/07/06 09:27:42;;;;;;;0.00;0.00;;;21.10;79.60;;;;;;5053292;28;20024;-75
2022/07/06 09:30:10;;;;;;;0.10;0.10;;;21.10;81.90;;;;;;5052533;28;20013;-73
2022/07/06 09:32:46;;;;;;;0.57;0.03;;;21.30;74.90;;;;;;5054517;28;20021;-75
2022/07/06 09:35:26;;;;;;;11.15;0.20;;;21.40;78.00;;;;;;5051879;28;20021;-75
2022/07/06 09:38:11;;;;;;;0.45;0.10;;;21.80;81.60;;;;;;5053129;28;20025;-77
2022/07/06 09:40:42;;;;;;;0.00;0.00;;;21.70;75.40;;;;;;5053070;28;20029;-75
2022/07/06 09:43:16;;;;;;;0.00;0.00;;;21.50;75.40;;;;;;5053026;28;20025;-75
2022/07/06 09:45:50;;;;;;;0.45;0.00;;;21.60;74.20;;;;;;5053144;28;20029;-75
2022/07/06 09:48:21;;;;;;;0.00;0.00;;;21.80;80.50;;;;;;5052885;28;20112;-75
2022/07/06 09:50:50;;;;;;;0.05;0.00;;;21.90;70.90;;;;;;5053491;28;20059;-75
2022/07/06 09:53:17;;;;;;;0.35;0.00;;;21.70;75.70;;;;;;5053203;28;20029;-74
2022/07/06 09:55:50;;;;;;;0.00;0.00;;;21.70;79.40;;;;;;5053410;28;20074;-74
2022/07/06 09:58:17;;;;;;;1.85;0.00;;;21.80;80.00;;;;;;5052782;28;20075;-75
2022/07/06 10:00:44;;;;;;;3.50;0.10;;;21.70;76.80;;;;;;5052855;28;20095;-75
2022/07/06 10:03:10;;;;;;;0.00;0.00;;;21.70;81.10;;;;;;5052873;28;20029;-75
2022/07/06 10:05:38;;;;;;;0.40;0.00;;;21.70;75.10;;;;;;5053148;28;20028;-76
2022/07/06 10:08:05;;;;;;;1.30;0.10;;;21.70;80.00;;;;;;5051410;28;20029;-75
2022/07/06 10:10:32;;;;;;;0.45;0.00;;;21.80;78.10;;;;;;5051970;28;20013;-74
2022/07/06 10:12:59;;;;;;;0.00;0.00;;;21.80;79.60;;;;;;5051521;28;20055;-72
2022/07/06 10:15:33;;;;;;;0.00;0.00;;;22.10;79.00;;;;;;5056294;28;20033;-71
2022/07/06 10:18:02;;;;;;;0.00;0.00;;;22.20;74.70;;;;;;5056593;28;20017;-71
2022/07/06 10:20:31;;;;;;;0.00;0.00;;;22.30;70.60;;;;;;5056253;28;20104;-72
2022/07/06 10:22:59;;;;;;;0.00;0.00;;;22.10;73.40;;;;;;5056255;28;20025;-72
2022/07/06 10:25:26;;;;;;;0.00;0.00;;;22.20;72.10;;;;;;5056193;28;20031;-73
2022/07/06 10:27:52;;;;;;;0.00;0.00;;;22.10;73.40;;;;;;5056055;28;20031;-72
2022/07/06 10:30:19;;;;;;;0.20;0.00;;;22.20;71.10;;;;;;5056317;28;20021;-73
2022/07/06 10:32:48;;;;;;;0.63;0.00;;;22.00;70.70;;;;;;5056052;28;20020;-72
2022/07/06 10:35:14;;;;;;;0.00;0.00;;;22.00;70.70;;;;;;5056238;28;20029;-73
2022/07/06 10:37:40;;;;;;;0.63;0.25;;;22.10;73.10;;;;;;5056786;28;20051;-79
2022/07/06 10:43:00;;;;;;;0.03;0.00;;;22.30;73.60;;;;;;5056904;28;20039;-76
2022/07/06 10:45:28;;;;;;;0.00;0.00;;;22.70;74.60;;;;;;5056413;28;20031;-74
2022/07/06 10:48:17;;;;;;;0.40;0.00;;;23.00;70.10;;;;;;5056393;28;20025;-72
2022/07/06 10:50:45;;;;;;;0.90;0.00;;;23.20;68.10;;;;;;5056012;28;20504;-75
2022/07/06 10:53:16;;;;;;;0.55;0.00;;;23.00;70.80;;;;;;5056030;28;20021;-73
2022/07/06 10:55:50;;;;;;;0.47;0.00;;;22.80;67.70;;;;;;5056153;28;20024;-73
2022/07/06 10:58:34;;;;;;;0.32;0.00;;;22.90;74.90;;;;;;5054238;28;20025;-73
2022/07/06 11:01:00;;;;;;;0.00;0.00;;;22.80;69.80;;;;;;5055694;28;20056;-72
2022/07/06 11:03:42;;;;;;;1.55;0.00;;;22.80;73.10;;;;;;5055582;28;20071;-72
2022/07/06 11:06:12;;;;;;;0.10;0.00;;;23.00;72.30;;;;;;5055811;28;20036;-72
2022/07/06 11:08:56;;;;;;;0.40;0.00;;;23.30;69.30;;;;;;5055433;28;20031;-72
2022/07/06 11:11:38;;;;;;;1.75;0.00;;;23.70;64.60;;;;;;5055241;28;20116;-72
2022/07/06 11:14:17;;;;;;;0.30;0.00;;;23.80;65.70;;;;;;5056047;28;20017;-73
2022/07/06 11:16:49;;;;;;;0.20;0.00;;;23.70;62.90;;;;;;5055853;28;20029;-73
2022/07/06 11:19:17;;;;;;;0.63;0.00;;;23.50;62.10;;;;;;5054042;28;20032;-73
2022/07/06 11:21:47;;;;;;;0.25;0.00;;;23.60;66.40;;;;;;5055305;28;20036;-74
2022/07/06 11:24:15;;;;;;;0.00;0.00;;;23.70;62.50;;;;;;5053794;28;20094;-74
2022/07/06 11:26:41;;;;;;;;;;;23.90;64.40;;;;;;5055516;28;20024;-74
2022/07/06 11:29:08;;;;;;;0.10;0.00;;;23.90;62.80;;;;;;5055464;28;19905;-75
2022/07/06 11:31:36;;;;;;;2.40;0.05;;;23.90;64.90;;;;;;5055912;28;20024;-74
2022/07/06 11:34:04;;;;;;;0.57;0.00;;;23.90;64.60;;;;;;5055284;28;20040;-74
2022/07/06 11:36:29;;;;;;;0.50;0.00;;;24.00;59.90;;;;;;5054090;28;20025;-76
2022/07/06 11:38:55;;;;;;;0.47;0.00;;;24.00;63.40;;;;;;5053969;28;20382;-76
2022/07/06 11:41:20;;;;;;;0.57;0.25;;;24.30;64.10;;;;;;5053751;28;20023;-76
2022/07/06 11:43:47;;;;;;;1.08;0.00;;;24.50;60.10;;;;;;5054369;28;20096;-76
2022/07/06 11:46:40;;;;;;;1.65;0.00;;;24.60;57.70;;;;;;5055044;28;20025;-76
2022/07/06 11:49:08;;;;;;;1.27;0.10;;;24.80;59.00;;;;;;5069763;28;20040;-76
2022/07/06 11:51:38;;;;;;;0.30;0.00;;;24.90;59.30;;;;;;5054648;28;20020;-76
2022/07/06 11:54:21;;;;;;;1.08;0.00;;;24.90;59.10;;;;;;5053584;28;20375;-76
2022/07/06 11:56:51;;;;;;;0.20;0.00;;;25.00;59.30;;;;;;5053367;28;20116;-76
2022/07/06 11:59:24;;;;;;;1.92;0.00;;;25.10;58.80;;;;;;5054354;28;20032;-76
2022/07/06 12:01:58;;;;;;;1.92;0.00;;;24.80;55.50;;;;;;5055123;28;20090;-76
2022/07/06 12:04:25;;;;;;;1.38;0.17;;;24.90;57.20;;;;;;5053273;28;20509;-76
2022/07/06 12:06:51;;;;;;;3.75;0.20;;;25.00;56.40;;;;;;5053173;28;20505;-76
2022/07/06 12:09:17;;;;;;;1.65;0.00;;;25.10;54.90;;;;;;5053107;28;20051;-76
2022/07/06 12:11:46;;;;;;;0.47;0.00;;;25.00;53.30;;;;;;5054331;28;20025;-76
2022/07/06 12:14:20;;;;;;;0.00;0.00;;;24.50;54.90;;;;;;5053021;28;20040;-76
2022/07/06 12:16:48;;;;;;;1.10;0.00;;;24.20;56.60;;;;;;5054280;28;20519;-76
2022/07/06 12:19:14;;;;;;;3.03;0.10;;;24.50;62.50;;;;;;5052837;28;20363;-76
2022/07/06 12:21:50;;;;;;;0.30;0.00;;;24.90;58.20;;;;;;5054018;28;20137;-76
2022/07/06 12:24:26;;;;;;;2.35;0.00;;;25.50;59.80;;;;;;5054427;28;20389;-76
2022/07/06 12:26:52;;;;;;;2.17;0.00;;;25.80;54.50;;;;;;5052930;28;20017;-76
2022/07/06 12:29:19;;;;;;;1.05;0.00;;;25.90;57.80;;;;;;5053900;28;20045;-76
2022/07/06 12:31:53;;;;;;;2.33;0.30;;;26.10;60.20;;;;;;5053848;28;20482;-76
2022/07/06 12:34:24;;;;;;;0.50;0.00;;;26.20;58.40;;;;;;5053949;28;20067;-76
2022/07/06 12:36:51;;;;;;;0.80;0.00;;;26.30;53.50;;;;;;5052026;28;20025;-76
2022/07/06 12:39:18;;;;;;;0.30;0.10;;;26.20;57.10;;;;;;5053811;28;20120;-76
2022/07/06 12:41:50;;;;;;;0.40;0.00;;;26.30;56.20;;;;;;5053847;28;20028;-76
2022/07/06 12:44:23;;;;;;;0.20;0.00;;;26.40;56.50;;;;;;5053904;28;20032;-76
2022/07/06 12:46:51;;;;;;;0.73;0.00;;;26.10;53.40;;;;;;5052622;28;20039;-76
2022/07/06 12:49:23;;;;;;;1.45;0.00;;;25.90;56.20;;;;;;5052302;28;20028;-76
2022/07/06 12:52:15;;;;;;;1.63;0.00;;;25.90;55.70;;;;;;5053701;28;20025;-76
2022/07/06 12:54:48;;;;;;;0.15;0.00;;;26.00;54.20;;;;;;5050739;28;20033;-76
2022/07/06 12:57:16;;;;;;;0.00;0.00;;;26.20;55.50;;;;;;5053871;28;20029;-76